sensor_id;sensor_type;location;lat;lon;timestamp;P1;durP1;ratioP1;P2;durP2;ratioP2
10523;SDS011;5310;48.638;9.060;2023-06-14T00:00:58;1.20;;;1.20;;
10523;SDS011;5310;48.638;9.060;2023-06-14T00:03:23;1.20;;;1.20;;
10523;SDS011;5310;48.638;9.060;2023-06-14T00:05:50;1.20;;;1.20;;
10523;SDS011;5310;48.638;9.060;2023-06-14T00:08:16;1.10;;;1.10;;
10523;SDS011;5310;48.638;9.060;2023-06-14T00:10:43;1.10;;;1.10;;
10523;SDS011;5310;48.638;9.060;2023-06-14T00:13:10;1.20;;;1.20;;
10523;SDS011;5310;48.638;9.060;2023-06-14T00:15:36;1.30;;;1.30;;
10523;SDS011;5310;48.638;9.060;2023-06-14T00:18:02;1.50;;;1.40;;
10523;SDS011;5310;48.638;9.060;2023-06-14T00:20:29;1.47;;;1.40;;
10523;SDS011;5310;48.638;9.060;2023-06-14T00:22:58;1.20;;;1.20;;
10523;SDS011;5310;48.638;9.060;2023-06-14T00:25:25;1.20;;;1.20;;
10523;SDS011;5310;48.638;9.060;2023-06-14T00:27:51;1.30;;;1.30;;
10523;SDS011;5310;48.638;9.060;2023-06-14T00:30:17;1.70;;;1.60;;
10523;SDS011;5310;48.638;9.060;2023-06-14T00:32:43;1.50;;;1.40;;
10523;SDS011;5310;48.638;9.060;2023-06-14T00:35:10;1.27;;;1.27;;
10523;SDS011;5310;48.638;9.060;2023-06-14T00:37:36;1.53;;;1.43;;
10523;SDS011;5310;48.638;9.060;2023-06-14T00:40:02;1.60;;;1.50;;
10523;SDS011;5310;48.638;9.060;2023-06-14T00:42:29;1.40;;;1.40;;
10523;SDS011;5310;48.638;9.060;2023-06-14T00:44:55;1.60;;;1.50;;
10523;SDS011;5310;48.638;9.060;2023-06-14T00:47:21;1.50;;;1.40;;
10523;SDS011;5310;48.638;9.060;2023-06-14T00:49:47;1.77;;;1.63;;
10523;SDS011;5310;48.638;9.060;2023-06-14T00:52:14;1.60;;;1.50;;
10523;SDS011;5310;48.638;9.060;2023-06-14T00:54:41;1.60;;;1.50;;
10523;SDS011;5310;48.638;9.060;2023-06-14T00:57:08;1.60;;;1.50;;
10523;SDS011;5310;48.638;9.060;2023-06-14T00:59:36;1.67;;;1.57;;
10523;SDS011;5310;48.638;9.060;2023-06-14T01:02:07;1.60;;;1.50;;
10523;SDS011;5310;48.638;9.060;2023-06-14T01:04:33;1.50;;;1.40;;
10523;SDS011;5310;48.638;9.060;2023-06-14T01:09:48;1.70;;;1.60;;
10523;SDS011;5310;48.638;9.060;2023-06-14T01:12:29;1.60;;;1.50;;
10523;SDS011;5310;48.638;9.060;2023-06-14T01:15:13;1.80;;;1.70;;
10523;SDS011;5310;48.638;9.060;2023-06-14T01:17:39;1.63;;;1.53;;
10523;SDS011;5310;48.638;9.060;2023-06-14T01:20:09;1.60;;;1.50;;
10523;SDS011;5310;48.638;9.060;2023-06-14T01:22:43;1.60;;;1.50;;
10523;SDS011;5310;48.638;9.060;2023-06-14T01:25:09;1.53;;;1.43;;
10523;SDS011;5310;48.638;9.060;2023-06-14T01:27:37;1.73;;;1.63;;
10523;SDS011;5310;48.638;9.060;2023-06-14T01:30:03;1.70;;;1.60;;
10523;SDS011;5310;48.638;9.060;2023-06-14T01:32:30;1.70;;;1.60;;
10523;SDS011;5310;48.638;9.060;2023-06-14T01:34:56;1.47;;;1.37;;
10523;SDS011;5310;48.638;9.060;2023-06-14T01:37:22;1.60;;;1.50;;
10523;SDS011;5310;48.638;9.060;2023-06-14T01:39:48;1.90;;;1.70;;
10523;SDS011;5310;48.638;9.060;2023-06-14T01:42:15;1.70;;;1.60;;
10523;SDS011;5310;48.638;9.060;2023-06-14T01:44:41;1.60;;;1.50;;
10523;SDS011;5310;48.638;9.060;2023-06-14T01:47:08;1.77;;;1.67;;
10523;SDS011;5310;48.638;9.060;2023-06-14T01:49:34;1.63;;;1.53;;
10523;SDS011;5310;48.638;9.060;2023-06-14T01:52:00;1.70;;;1.60;;
10523;SDS011;5310;48.638;9.060;2023-06-14T01:54:26;1.50;;;1.40;;
10523;SDS011;5310;48.638;9.060;2023-06-14T01:56:52;1.80;;;1.70;;
10523;SDS011;5310;48.638;9.060;2023-06-14T01:59:18;1.80;;;1.70;;
10523;SDS011;5310;48.638;9.060;2023-06-14T02:01:44;1.80;;;1.70;;
10523;SDS011;5310;48.638;9.060;2023-06-14T02:04:11;1.80;;;1.70;;
10523;SDS011;5310;48.638;9.060;2023-06-14T02:06:37;1.90;;;1.80;;
10523;SDS011;5310;48.638;9.060;2023-06-14T02:09:03;1.70;;;1.60;;
10523;SDS011;5310;48.638;9.060;2023-06-14T02:11:28;1.90;;;1.80;;
10523;SDS011;5310;48.638;9.060;2023-06-14T02:13:55;2.00;;;1.87;;
10523;SDS011;5310;48.638;9.060;2023-06-14T02:16:21;1.87;;;1.77;;
10523;SDS011;5310;48.638;9.060;2023-06-14T02:18:47;1.90;;;1.80;;
10523;SDS011;5310;48.638;9.060;2023-06-14T02:21:13;2.10;;;1.90;;
10523;SDS011;5310;48.638;9.060;2023-06-14T02:23:39;1.77;;;1.67;;
10523;SDS011;5310;48.638;9.060;2023-06-14T02:26:06;2.10;;;1.90;;
10523;SDS011;5310;48.638;9.060;2023-06-14T02:28:32;1.77;;;1.67;;
10523;SDS011;5310;48.638;9.060;2023-06-14T02:30:58;2.00;;;1.90;;
10523;SDS011;5310;48.638;9.060;2023-06-14T02:33:25;1.87;;;1.77;;
10523;SDS011;5310;48.638;9.060;2023-06-14T02:35:51;1.90;;;1.80;;
10523;SDS011;5310;48.638;9.060;2023-06-14T02:38:17;1.97;;;1.87;;
10523;SDS011;5310;48.638;9.060;2023-06-14T02:40:43;1.80;;;1.70;;
10523;SDS011;5310;48.638;9.060;2023-06-14T02:43:09;2.20;;;2.00;;
10523;SDS011;5310;48.638;9.060;2023-06-14T02:45:35;1.97;;;1.87;;
10523;SDS011;5310;48.638;9.060;2023-06-14T02:48:01;2.30;;;2.10;;
10523;SDS011;5310;48.638;9.060;2023-06-14T02:50:27;1.90;;;1.80;;
10523;SDS011;5310;48.638;9.060;2023-06-14T02:52:54;1.77;;;1.67;;
10523;SDS011;5310;48.638;9.060;2023-06-14T02:55:21;1.77;;;1.67;;
10523;SDS011;5310;48.638;9.060;2023-06-14T02:57:47;1.80;;;1.70;;
10523;SDS011;5310;48.638;9.060;2023-06-14T03:00:14;1.80;;;1.70;;
10523;SDS011;5310;48.638;9.060;2023-06-14T03:02:40;1.80;;;1.70;;
10523;SDS011;5310;48.638;9.060;2023-06-14T03:05:07;1.97;;;1.87;;
10523;SDS011;5310;48.638;9.060;2023-06-14T03:07:34;1.80;;;1.70;;
10523;SDS011;5310;48.638;9.060;2023-06-14T03:10:05;1.70;;;1.60;;
10523;SDS011;5310;48.638;9.060;2023-06-14T03:12:33;1.90;;;1.80;;
10523;SDS011;5310;48.638;9.060;2023-06-14T03:14:59;1.90;;;1.80;;
10523;SDS011;5310;48.638;9.060;2023-06-14T03:17:29;1.80;;;1.70;;
10523;SDS011;5310;48.638;9.060;2023-06-14T03:19:58;2.13;;;1.93;;
10523;SDS011;5310;48.638;9.060;2023-06-14T03:22:24;1.90;;;1.80;;
10523;SDS011;5310;48.638;9.060;2023-06-14T03:24:50;1.90;;;1.80;;
10523;SDS011;5310;48.638;9.060;2023-06-14T03:27:16;1.70;;;1.60;;
10523;SDS011;5310;48.638;9.060;2023-06-14T03:29:42;1.77;;;1.67;;
10523;SDS011;5310;48.638;9.060;2023-06-14T03:32:08;1.93;;;1.83;;
10523;SDS011;5310;48.638;9.060;2023-06-14T03:34:34;1.80;;;1.70;;
10523;SDS011;5310;48.638;9.060;2023-06-14T03:37:03;2.03;;;1.90;;
10523;SDS011;5310;48.638;9.060;2023-06-14T03:39:29;2.17;;;1.97;;
10523;SDS011;5310;48.638;9.060;2023-06-14T03:41:55;1.90;;;1.80;;
10523;SDS011;5310;48.638;9.060;2023-06-14T03:44:21;1.80;;;1.70;;
10523;SDS011;5310;48.638;9.060;2023-06-14T03:46:47;1.73;;;1.63;;
10523;SDS011;5310;48.638;9.060;2023-06-14T03:49:13;1.80;;;1.70;;
10523;SDS011;5310;48.638;9.060;2023-06-14T03:51:39;1.70;;;1.60;;
10523;SDS011;5310;48.638;9.060;2023-06-14T03:54:05;1.50;;;1.40;;
10523;SDS011;5310;48.638;9.060;2023-06-14T03:56:31;1.90;;;1.80;;
10523;SDS011;5310;48.638;9.060;2023-06-14T03:58:57;1.67;;;1.57;;
10523;SDS011;5310;48.638;9.060;2023-06-14T04:01:23;1.60;;;1.50;;
10523;SDS011;5310;48.638;9.060;2023-06-14T04:03:52;1.50;;;1.40;;
10523;SDS011;5310;48.638;9.060;2023-06-14T04:06:18;1.53;;;1.43;;
10523;SDS011;5310;48.638;9.060;2023-06-14T04:08:44;1.80;;;1.70;;
10523;SDS011;5310;48.638;9.060;2023-06-14T04:11:10;1.83;;;1.73;;
10523;SDS011;5310;48.638;9.060;2023-06-14T04:13:36;1.70;;;1.60;;
10523;SDS011;5310;48.638;9.060;2023-06-14T04:16:04;1.80;;;1.70;;
10523;SDS011;5310;48.638;9.060;2023-06-14T04:18:30;1.50;;;1.40;;
10523;SDS011;5310;48.638;9.060;2023-06-14T04:20:56;1.60;;;1.50;;
10523;SDS011;5310;48.638;9.060;2023-06-14T04:23:22;1.50;;;1.40;;
10523;SDS011;5310;48.638;9.060;2023-06-14T04:25:48;1.43;;;1.40;;
10523;SDS011;5310;48.638;9.060;2023-06-14T04:28:14;1.37;;;1.33;;
10523;SDS011;5310;48.638;9.060;2023-06-14T04:30:41;1.20;;;1.20;;
10523;SDS011;5310;48.638;9.060;2023-06-14T04:33:07;1.20;;;1.20;;
10523;SDS011;5310;48.638;9.060;2023-06-14T04:35:34;1.33;;;1.23;;
10523;SDS011;5310;48.638;9.060;2023-06-14T04:38:02;1.40;;;1.30;;
10523;SDS011;5310;48.638;9.060;2023-06-14T04:40:30;1.30;;;1.20;;
10523;SDS011;5310;48.638;9.060;2023-06-14T04:42:56;1.10;;;1.10;;
10523;SDS011;5310;48.638;9.060;2023-06-14T04:45:22;1.40;;;1.30;;
10523;SDS011;5310;48.638;9.060;2023-06-14T04:47:49;1.20;;;1.20;;
10523;SDS011;5310;48.638;9.060;2023-06-14T04:50:16;1.50;;;1.40;;
10523;SDS011;5310;48.638;9.060;2023-06-14T04:52:43;1.30;;;1.20;;
10523;SDS011;5310;48.638;9.060;2023-06-14T04:55:09;1.07;;;1.07;;
10523;SDS011;5310;48.638;9.060;2023-06-14T04:57:35;1.30;;;1.20;;
10523;SDS011;5310;48.638;9.060;2023-06-14T05:00:03;1.40;;;1.30;;
10523;SDS011;5310;48.638;9.060;2023-06-14T05:02:30;1.20;;;1.20;;
10523;SDS011;5310;48.638;9.060;2023-06-14T05:04:56;1.10;;;1.10;;
10523;SDS011;5310;48.638;9.060;2023-06-14T05:07:22;1.10;;;1.10;;
10523;SDS011;5310;48.638;9.060;2023-06-14T05:09:48;1.50;;;1.40;;
10523;SDS011;5310;48.638;9.060;2023-06-14T05:12:15;1.47;;;1.37;;
10523;SDS011;5310;48.638;9.060;2023-06-14T05:14:43;1.70;;;1.60;;
10523;SDS011;5310;48.638;9.060;2023-06-14T05:17:09;1.43;;;1.33;;
10523;SDS011;5310;48.638;9.060;2023-06-14T05:19:35;1.00;;;1.00;;
10523;SDS011;5310;48.638;9.060;2023-06-14T05:22:01;1.30;;;1.20;;
10523;SDS011;5310;48.638;9.060;2023-06-14T05:24:28;1.70;;;1.60;;
10523;SDS011;5310;48.638;9.060;2023-06-14T05:26:55;1.67;;;1.57;;
10523;SDS011;5310;48.638;9.060;2023-06-14T05:29:21;1.60;;;1.50;;
10523;SDS011;5310;48.638;9.060;2023-06-14T05:31:47;1.70;;;1.60;;
10523;SDS011;5310;48.638;9.060;2023-06-14T05:34:13;1.40;;;1.30;;
10523;SDS011;5310;48.638;9.060;2023-06-14T05:36:39;1.50;;;1.40;;
10523;SDS011;5310;48.638;9.060;2023-06-14T05:39:05;1.67;;;1.53;;
10523;SDS011;5310;48.638;9.060;2023-06-14T05:41:31;1.50;;;1.40;;
10523;SDS011;5310;48.638;9.060;2023-06-14T05:43:57;1.40;;;1.30;;
10523;SDS011;5310;48.638;9.060;2023-06-14T05:46:25;1.40;;;1.30;;
10523;SDS011;5310;48.638;9.060;2023-06-14T05:48:51;1.40;;;1.30;;
10523;SDS011;5310;48.638;9.060;2023-06-14T05:51:17;1.50;;;1.40;;
10523;SDS011;5310;48.638;9.060;2023-06-14T05:53:48;1.50;;;1.40;;
10523;SDS011;5310;48.638;9.060;2023-06-14T05:56:15;1.33;;;1.23;;
10523;SDS011;5310;48.638;9.060;2023-06-14T05:58:42;1.27;;;1.17;;
10523;SDS011;5310;48.638;9.060;2023-06-14T06:01:08;1.30;;;1.20;;
10523;SDS011;5310;48.638;9.060;2023-06-14T06:03:34;1.10;;;1.00;;
10523;SDS011;5310;48.638;9.060;2023-06-14T06:06:00;1.30;;;1.20;;
10523;SDS011;5310;48.638;9.060;2023-06-14T06:08:28;1.10;;;1.00;;
10523;SDS011;5310;48.638;9.060;2023-06-14T06:10:54;1.30;;;1.20;;
10523;SDS011;5310;48.638;9.060;2023-06-14T06:13:20;1.20;;;1.10;;
